0VI1 weather

Brooklyn Airport
Manquin, Virginia, United States

Public forecast

Using degrees Fahrenheit for public forecast. Weather courtesy of forecast.io.

Closest aviation weather report (METAR) to Brooklyn Airport

Closest report is New Kent County Airport, 11.2 nm (20.8 km) S. Retrieved UTC (0 seconds ago):

Closest aviation forecast (TAF) to Brooklyn Airport

Closest forecast is Richmond International Airport, 15.1 nm (28.1 km) SW. Retrieved 2019/10/18 06:27 UTC (1 hour ago):

TAF KRIC 180525Z 1806/1906 29008KT P6SM SKC FM181400 32006KT P6SM SKC FM182300 VRB03KT P6SM SKC